Time;durP1;ratioP1;P1;durP2;ratioP2;P2;SDS_P1;SDS_P2;PMS_P1;PMS_P2;Temp;Humidity;BMP_temperature;BMP_pressure;BME280_temperature;BME280_humidity;BME280_pressure;Samples;Min_cycle;Max_cycle;Signal;HPM_P1;HPM_P2
2022/09/08 00:01:45;;;;;;;3.78;2.25;;;;;;;16.45;100.00;95629.50;5009952;28;20028;-57
2022/09/08 00:04:11;;;;;;;5.20;2.25;;;;;;;16.36;100.00;95628.78;5006524;28;20099;-57
2022/09/08 00:06:36;;;;;;;6.82;2.60;;;;;;;16.47;100.00;95638.16;5007614;28;20030;-57
2022/09/08 00:09:04;;;;;;;4.22;2.13;;;;;;;16.35;100.00;95640.38;5008089;28;20109;-55
2022/09/08 00:11:31;;;;;;;7.25;2.47;;;;;;;16.33;100.00;95624.63;5011503;28;20029;-56
2022/09/08 00:13:58;;;;;;;2.63;2.10;;;;;;;16.33;100.00;95629.13;5012383;28;20034;-56
2022/09/08 00:16:24;;;;;;;6.68;2.70;;;;;;;16.32;100.00;95635.44;5007985;28;20032;-55
2022/09/08 00:18:51;;;;;;;5.35;2.65;;;;;;;16.29;100.00;95638.44;5005822;28;20441;-54
2022/09/08 00:21:21;;;;;;;3.50;2.10;;;;;;;16.30;100.00;95648.91;5005608;28;20528;-57
2022/09/08 00:23:47;;;;;;;4.35;2.30;;;;;;;16.16;100.00;95657.66;5013671;28;20033;-56
2022/09/08 00:26:37;;;;;;;3.25;2.35;;;;;;;16.10;100.00;95650.41;5012423;28;20014;-55
2022/09/08 00:29:03;;;;;;;4.78;2.40;;;;;;;16.13;100.00;95652.69;5007599;28;20045;-57
2022/09/08 00:31:28;;;;;;;5.38;2.55;;;;;;;16.18;100.00;95648.50;5006244;28;20033;-55
2022/09/08 00:33:54;;;;;;;3.25;2.25;;;;;;;16.19;100.00;95636.03;5009845;28;20477;-56
2022/09/08 00:36:19;;;;;;;5.43;2.42;;;;;;;16.15;100.00;95630.28;5009852;28;20049;-55
2022/09/08 00:38:52;;;;;;;4.25;2.67;;;;;;;16.11;100.00;95628.97;5007380;28;20057;-56
2022/09/08 00:41:20;;;;;;;6.20;3.95;;;;;;;16.08;100.00;95629.31;5007409;28;20389;-56
2022/09/08 00:43:49;;;;;;;5.18;2.67;;;;;;;16.08;100.00;95618.69;5007422;28;20045;-56
2022/09/08 00:46:55;;;;;;;3.65;2.40;;;;;;;16.05;100.00;95621.72;5006867;28;20022;-56
2022/09/08 00:49:22;;;;;;;3.47;2.45;;;;;;;16.08;100.00;95617.88;4973918;28;20181;-56
2022/09/08 00:51:51;;;;;;;4.32;2.15;;;;;;;16.04;100.00;95612.94;5012187;28;20034;-56
2022/09/08 00:54:18;;;;;;;4.88;2.20;;;;;;;16.06;100.00;95606.63;5012715;28;20413;-54
2022/09/08 00:56:45;;;;;;;9.63;2.38;;;;;;;16.08;100.00;95617.88;5007860;28;20026;-57
2022/09/08 00:59:15;;;;;;;3.67;2.50;;;;;;;16.03;100.00;95613.94;5006837;28;20033;-57
2022/09/08 01:01:41;;;;;;;4.30;2.33;;;;;;;16.21;100.00;95611.97;5010498;28;20022;-56
2022/09/08 01:04:08;;;;;;;9.35;2.40;;;;;;;16.10;100.00;95600.75;5007856;28;20048;-55
2022/09/08 01:13:06;;;;;;;2.33;2.10;;;;;;;16.01;100.00;95585.91;5008156;28;20149;-54
2022/09/08 01:15:32;;;;;;;4.38;2.08;;;;;;;16.04;100.00;95583.72;5004728;28;20022;-56
2022/09/08 01:17:58;;;;;;;2.97;2.10;;;;;;;15.96;100.00;95578.47;5004212;28;20485;-57
2022/09/08 01:20:50;;;;;;;2.75;2.20;;;;;;;15.90;100.00;95569.38;5007997;28;20555;-56
2022/09/08 01:23:36;;;;;;;7.93;2.20;;;;;;;15.95;100.00;95576.81;5005638;28;20435;-56
2022/09/08 01:26:20;;;;;;;;;;;;;;;15.97;100.00;95574.00;5003273;28;20046;-55
2022/09/08 01:29:06;;;;;;;2.78;2.35;;;;;;;15.97;100.00;95569.50;5009985;28;19924;-54
2022/09/08 01:31:35;;;;;;;2.20;2.03;;;;;;;15.94;100.00;95564.53;5008838;28;20030;-57
2022/09/08 01:34:02;;;;;;;2.58;2.30;;;;;;;15.94;100.00;95561.88;5005194;28;20052;-55
2022/09/08 01:36:28;;;;;;;3.72;2.15;;;;;;;15.94;100.00;95561.88;5002211;28;20030;-56
2022/09/08 01:38:53;;;;;;;3.58;2.40;;;;;;;16.01;100.00;95559.34;5009113;28;20028;-57
2022/09/08 01:41:18;;;;;;;3.55;2.20;;;;;;;16.05;100.00;95555.31;5007163;28;20026;-55
2022/09/08 01:43:44;;;;;;;2.30;2.10;;;;;;;16.08;100.00;95559.47;5003718;28;20060;-53
2022/09/08 01:46:10;;;;;;;4.15;2.53;;;;;;;16.04;100.00;95553.69;5014489;28;20068;-52
2022/09/08 01:48:35;;;;;;;4.30;2.05;;;;;;;16.02;100.00;95556.50;5002553;28;20026;-57
2022/09/08 01:51:03;;;;;;;4.25;2.28;;;;;;;16.03;100.00;95549.38;5006304;28;20045;-56
2022/09/08 01:53:29;;;;;;;3.80;2.40;;;;;;;16.03;100.00;95547.56;5004112;28;20104;-53
2022/09/08 01:55:55;;;;;;;3.67;2.35;;;;;;;16.06;100.00;95540.25;5006551;28;20037;-56
2022/09/08 01:58:20;;;;;;;6.82;2.28;;;;;;;16.00;100.00;95544.44;5000142;28;20048;-55
2022/09/08 02:00:46;;;;;;;2.55;2.20;;;;;;;15.96;100.00;95541.28;5002827;28;20108;-58
2022/09/08 02:03:12;;;;;;;4.70;2.50;;;;;;;15.93;100.00;95554.94;4999214;28;20025;-55
2022/09/08 02:05:41;;;;;;;2.45;2.08;;;;;;;15.92;100.00;95560.44;4997862;28;20030;-56
2022/09/08 02:08:07;;;;;;;4.22;2.20;;;;;;;15.92;100.00;95574.53;5006428;28;20169;-55
2022/09/08 02:10:33;;;;;;;3.03;2.50;;;;;;;15.96;100.00;95573.16;4991032;28;20026;-55
2022/09/08 02:12:59;;;;;;;3.00;1.85;;;;;;;15.97;100.00;95568.69;5012166;28;20022;-57
2022/09/08 02:15:24;;;;;;;3.17;1.73;;;;;;;15.86;100.00;95565.41;4992706;28;20029;-57
2022/09/08 02:17:50;;;;;;;2.42;1.88;;;;;;;15.79;100.00;95569.78;5007836;28;20022;-57
2022/09/08 02:20:15;;;;;;;6.50;1.60;;;;;;;15.76;100.00;95570.13;5008162;28;20417;-55
2022/09/08 02:22:42;;;;;;;2.10;1.42;;;;;;;15.75;100.00;95568.50;4983246;28;20517;-57
2022/09/08 02:25:07;;;;;;;3.65;1.60;;;;;;;15.75;100.00;95579.09;5005082;28;20112;-57
2022/09/08 02:27:33;;;;;;;4.63;1.73;;;;;;;15.73;100.00;95579.28;5006064;28;20117;-57
2022/09/08 02:29:58;;;;;;;2.20;1.42;;;;;;;15.76;100.00;95583.41;5006529;28;20128;-57
2022/09/08 02:32:24;;;;;;;9.32;2.03;;;;;;;15.82;100.00;95587.19;5003257;28;20037;-58
2022/09/08 02:34:49;;;;;;;1.95;1.83;;;;;;;15.81;100.00;95588.19;5014315;28;20096;-57
2022/09/08 02:37:15;;;;;;;2.17;1.80;;;;;;;15.78;100.00;95591.19;5005742;28;20164;-55
2022/09/08 02:39:40;;;;;;;6.72;2.15;;;;;;;15.71;100.00;95594.53;5006462;28;20065;-57
2022/09/08 02:42:06;;;;;;;2.72;2.15;;;;;;;15.68;100.00;95596.72;5006659;28;20057;-56
2022/09/08 02:44:32;;;;;;;2.30;1.75;;;;;;;15.69;100.00;95590.41;5008816;28;20033;-55
2022/09/08 02:46:57;;;;;;;2.38;1.70;;;;;;;15.75;100.00;95593.19;5006433;28;20034;-57
2022/09/08 02:49:23;;;;;;;3.60;1.77;;;;;;;15.75;100.00;95593.19;5005961;28;20038;-55
2022/09/08 02:51:48;;;;;;;4.95;2.13;;;;;;;15.78;100.00;95588.53;5004581;28;20510;-57
2022/09/08 02:54:14;;;;;;;5.18;2.00;;;;;;;15.78;100.00;95594.66;5014914;28;20034;-56
2022/09/08 02:56:40;;;;;;;3.85;1.85;;;;;;;15.76;100.00;95586.88;5003082;28;20031;-56
2022/09/08 02:59:05;;;;;;;2.00;1.90;;;;;;;15.72;100.00;95590.88;5006047;28;20030;-56
2022/09/08 03:01:30;;;;;;;5.60;2.05;;;;;;;15.69;100.00;95588.59;5006085;28;20120;-56
2022/09/08 03:03:56;;;;;;;6.25;2.40;;;;;;;15.66;100.00;95586.31;5005228;28;20061;-58
2022/09/08 03:06:21;;;;;;;2.22;2.03;;;;;;;15.66;100.00;95593.41;5006750;28;20140;-56
2022/09/08 03:08:47;;;;;;;2.50;2.10;;;;;;;15.68;100.00;95591.41;5005623;28;20115;-56
2022/09/08 03:11:13;;;;;;;4.15;1.95;;;;;;;15.65;100.00;95591.75;5005418;28;20038;-54
2022/09/08 03:13:39;;;;;;;6.75;2.20;;;;;;;15.64;100.00;95601.56;5000025;28;20018;-56
2022/09/08 03:16:05;;;;;;;6.78;2.25;;;;;;;15.65;100.00;95592.59;5007190;28;20040;-57
2022/09/08 03:18:31;;;;;;;2.22;1.88;;;;;;;15.64;100.00;95588.31;5005174;28;20030;-57
2022/09/08 03:21:03;;;;;;;2.30;2.15;;;;;;;15.61;100.00;95586.81;5005793;28;20204;-57
2022/09/08 03:23:30;;;;;;;2.92;2.38;;;;;;;15.63;100.00;95586.66;5007198;28;20520;-57
2022/09/08 03:26:01;;;;;;;2.92;2.20;;;;;;;15.64;100.00;95583.00;5008419;28;20502;-56
2022/09/08 03:28:26;;;;;;;1.85;1.75;;;;;;;15.59;100.00;95585.34;5007793;28;20034;-56
2022/09/08 03:30:52;;;;;;;2.65;1.90;;;;;;;15.53;100.00;95580.72;5004624;28;20060;-57
2022/09/08 03:33:17;;;;;;;5.32;1.90;;;;;;;15.46;100.00;95580.59;5006462;28;20034;-58
2022/09/08 03:35:44;;;;;;;2.22;2.03;;;;;;;15.39;100.00;95584.97;5003569;28;20034;-57
2022/09/08 03:38:09;;;;;;;1.70;1.60;;;;;;;15.26;100.00;95583.72;4991865;28;20033;-57
2022/09/08 03:40:38;;;;;;;5.00;1.40;;;;;;;15.18;100.00;95581.09;5008140;28;20033;-57
2022/09/08 03:43:06;;;;;;;3.63;1.40;;;;;;;15.10;100.00;95579.31;5011040;28;20030;-57
2022/09/08 03:45:31;;;;;;;4.22;1.90;;;;;;;15.00;100.00;95579.50;5003599;28;20034;-57
2022/09/08 03:47:57;;;;;;;5.03;2.05;;;;;;;14.95;100.00;95578.41;5005769;28;20085;-55
2022/09/08 03:50:22;;;;;;;2.97;1.50;;;;;;;14.92;100.00;95573.41;5009897;28;20022;-56
2022/09/08 03:52:48;;;;;;;5.35;1.77;;;;;;;14.82;100.00;95581.59;5012539;28;20520;-56
2022/09/08 03:55:13;;;;;;;2.60;1.70;;;;;;;14.80;100.00;95578.28;5012494;28;20481;-56
2022/09/08 03:57:39;;;;;;;1.85;1.58;;;;;;;14.82;100.00;95578.94;5006489;28;20017;-55
2022/09/08 04:00:08;;;;;;;1.90;1.80;;;;;;;14.78;100.00;95573.16;5009391;28;20717;-57
2022/09/08 04:02:33;;;;;;;3.55;2.00;;;;;;;14.74;100.00;95593.03;5007352;28;20061;-57
2022/09/08 04:04:59;;;;;;;3.35;1.70;;;;;;;14.71;100.00;95594.22;5003138;28;20129;-56
2022/09/08 04:07:27;;;;;;;5.70;1.80;;;;;;;14.95;100.00;95596.97;5011229;28;20703;-57
2022/09/08 04:09:53;;;;;;;2.28;1.40;;;;;;;14.85;100.00;95591.84;4992273;28;20035;-56
2022/09/08 04:12:19;;;;;;;1.33;1.30;;;;;;;14.88;100.00;95602.09;4993541;28;20049;-57
2022/09/08 04:14:48;;;;;;;4.07;1.50;;;;;;;14.76;100.00;95604.31;5008885;28;20429;-58
2022/09/08 04:17:14;;;;;;;3.00;1.60;;;;;;;14.59;100.00;95608.78;5009306;28;20412;-55
2022/09/08 04:19:39;;;;;;;1.85;1.73;;;;;;;14.52;100.00;95603.34;5009085;28;20029;-56
2022/09/08 04:22:06;;;;;;;3.13;1.60;;;;;;;14.46;100.00;95611.94;5011516;28;20525;-55
2022/09/08 04:24:32;;;;;;;1.60;1.50;;;;;;;14.45;100.00;95610.28;5010660;28;20030;-56
2022/09/08 04:26:58;;;;;;;2.47;1.65;;;;;;;14.45;100.00;95624.38;5009163;28;20497;-55
2022/09/08 04:29:23;;;;;;;1.67;1.58;;;;;;;14.41;100.00;95616.91;4992656;28;20034;-56
2022/09/08 04:31:49;;;;;;;2.97;1.77;;;;;;;14.33;100.00;95618.59;5009330;28;20026;-56
2022/09/08 04:34:15;;;;;;;6.15;1.80;;;;;;;14.27;100.00;95621.91;5007356;28;20472;-56
2022/09/08 04:36:42;;;;;;;3.55;1.50;;;;;;;14.26;100.00;95622.06;5009543;28;20105;-57
2022/09/08 04:39:08;;;;;;;2.05;1.70;;;;;;;14.29;100.00;95629.69;5008749;28;20033;-57
2022/09/08 04:41:33;;;;;;;2.38;1.42;;;;;;;14.27;100.00;95629.84;5006736;28;20076;-57
2022/09/08 04:44:03;;;;;;;5.10;1.67;;;;;;;14.28;100.00;95633.31;5008982;28;20505;-57
2022/09/08 04:46:29;;;;;;;5.85;1.80;;;;;;;14.21;100.00;95634.97;5009961;28;20030;-56
2022/09/08 04:48:55;;;;;;;1.80;1.70;;;;;;;14.18;100.00;95638.78;5008454;28;20033;-57
2022/09/08 04:51:22;;;;;;;1.65;1.50;;;;;;;14.23;100.00;95641.75;5007411;28;20045;-56
2022/09/08 04:53:48;;;;;;;1.60;1.50;;;;;;;14.23;100.00;95649.69;5010839;28;20504;-57
2022/09/08 04:56:15;;;;;;;2.70;2.00;;;;;;;14.25;100.00;95646.91;5005960;28;20022;-57
2022/09/08 04:58:42;;;;;;;3.92;1.60;;;;;;;14.25;100.00;95653.00;5003800;28;20042;-56
2022/09/08 05:01:13;;;;;;;1.40;1.40;;;;;;;14.27;100.00;95660.78;5009274;28;20030;-57
2022/09/08 05:03:39;;;;;;;1.77;1.50;;;;;;;14.24;100.00;95659.28;5005879;28;20105;-56
2022/09/08 05:06:10;;;;;;;3.03;1.70;;;;;;;14.21;100.00;95659.63;5006281;28;20561;-56
2022/09/08 05:08:36;;;;;;;4.65;1.70;;;;;;;14.11;100.00;95659.78;5007078;28;20050;-57
2022/09/08 05:11:02;;;;;;;17.48;3.08;;;;;;;14.07;100.00;95669.06;5006246;28;20048;-57
2022/09/08 05:13:29;;;;;;;13.18;2.58;;;;;;;14.09;100.00;95667.06;5006113;28;20112;-56
2022/09/08 05:16:15;;;;;;;7.18;1.70;;;;;;;14.07;100.00;95665.59;5005796;28;20037;-56
2022/09/08 05:18:41;;;;;;;3.35;1.90;;;;;;;14.01;100.00;95667.06;5006411;28;20032;-57
2022/09/08 05:21:08;;;;;;;6.65;2.00;;;;;;;13.99;100.00;95669.88;5000151;28;20117;-57
2022/09/08 05:23:35;;;;;;;15.07;2.30;;;;;;;13.99;100.00;95672.50;5004760;28;20018;-56
2022/09/08 05:26:06;;;;;;;5.93;1.75;;;;;;;13.95;100.00;95673.03;5005634;28;20034;-57
2022/09/08 05:28:34;;;;;;;6.80;1.85;;;;;;;13.99;100.00;95677.81;5004454;28;20084;-57
2022/09/08 05:31:00;;;;;;;2.28;1.60;;;;;;;13.99;100.00;95675.16;5003907;28;20033;-57
2022/09/08 05:33:25;;;;;;;4.13;2.00;;;;;;;13.99;100.00;95677.00;4996530;28;20512;-55
2022/09/08 05:35:51;;;;;;;3.97;2.10;;;;;;;14.00;100.00;95678.66;4991860;28;20474;-57
2022/09/08 05:38:17;;;;;;;3.17;1.63;;;;;;;14.06;100.00;95685.13;5010432;28;20029;-55
2022/09/08 05:40:43;;;;;;;7.18;2.05;;;;;;;14.09;100.00;95682.13;5002043;28;20387;-56
2022/09/08 05:43:08;;;;;;;7.38;1.55;;;;;;;14.05;100.00;95681.63;5002273;28;20035;-57
2022/09/08 05:45:34;;;;;;;2.25;1.60;;;;;;;14.03;100.00;95679.13;5010258;28;20029;-57
2022/09/08 05:47:59;;;;;;;1.77;1.40;;;;;;;14.04;100.00;95678.16;5009096;28;20417;-57
2022/09/08 05:50:25;;;;;;;1.55;1.45;;;;;;;14.04;100.00;95685.28;5004779;28;20109;-57
2022/09/08 05:52:50;;;;;;;2.95;1.80;;;;;;;14.12;100.00;95679.97;5003461;28;20049;-56
2022/09/08 05:55:17;;;;;;;2.85;1.40;;;;;;;14.22;100.00;95690.41;5002737;28;20029;-57
2022/09/08 05:57:43;;;;;;;6.82;1.95;;;;;;;14.28;100.00;95696.88;5004041;28;20030;-54
2022/09/08 06:00:09;;;;;;;6.18;1.50;;;;;;;14.24;100.00;95684.97;5002315;28;20451;-57
2022/09/08 06:02:34;;;;;;;5.00;1.80;;;;;;;14.22;100.00;95693.06;5004723;28;20026;-57
2022/09/08 06:05:00;;;;;;;4.43;2.00;;;;;;;14.19;100.00;95685.44;4999757;28;20096;-57
2022/09/08 06:07:26;;;;;;;1.40;1.40;;;;;;;14.15;100.00;95692.06;5004247;28;20654;-57
2022/09/08 06:09:52;;;;;;;2.65;1.60;;;;;;;14.14;100.00;95687.75;4993561;28;20042;-55
2022/09/08 06:12:17;;;;;;;2.13;1.63;;;;;;;14.16;100.00;95701.66;5000480;28;20034;-54
2022/09/08 06:14:43;;;;;;;5.32;1.83;;;;;;;14.21;100.00;95695.88;5003483;28;20460;-57
2022/09/08 06:17:09;;;;;;;1.73;1.63;;;;;;;14.32;100.00;95700.84;5004411;28;20022;-54
2022/09/08 06:19:34;;;;;;;4.28;2.00;;;;;;;14.45;100.00;95698.53;5013989;28;20026;-56
2022/09/08 06:22:00;;;;;;;3.67;1.70;;;;;;;14.45;100.00;95702.97;5001125;28;20079;-56
2022/09/08 06:24:25;;;;;;;3.03;1.80;;;;;;;14.50;100.00;95711.28;5007519;28;20382;-57
2022/09/08 06:27:18;;;;;;;3.58;1.85;;;;;;;14.52;100.00;95709.28;5008043;28;20121;-53
2022/09/08 06:30:23;;;;;;;4.47;1.88;;;;;;;14.58;100.00;95708.63;5008747;28;20034;-56
2022/09/08 06:32:55;;;;;;;10.13;1.85;;;;;;;14.56;100.00;95710.63;4990095;28;20052;-54
2022/09/08 06:35:34;;;;;;;3.90;2.17;;;;;;;14.56;100.00;95710.63;5007619;28;20034;-57
2022/09/08 06:38:04;;;;;;;4.80;2.15;;;;;;;14.61;100.00;95718.06;5002255;28;20116;-56
2022/09/08 06:40:33;;;;;;;3.80;1.75;;;;;;;14.67;100.00;95713.91;4997543;28;20025;-58
2022/09/08 06:43:07;;;;;;;3.60;1.50;;;;;;;14.70;100.00;95709.09;5004990;28;20078;-57
2022/09/08 06:45:52;;;;;;;5.38;2.80;;;;;;;14.69;100.00;95717.22;5004376;28;20014;-57
2022/09/08 06:48:29;;;;;;;4.40;2.45;;;;;;;14.71;100.00;95712.63;4994236;28;20116;-58
2022/09/08 06:51:01;;;;;;;3.65;2.50;;;;;;;14.73;100.00;95713.28;4992378;28;20046;-55
2022/09/08 06:53:33;;;;;;;6.70;3.05;;;;;;;14.79;100.00;95714.41;4994293;28;20496;-57
2022/09/08 06:56:09;;;;;;;11.20;2.78;;;;;;;14.84;100.00;95718.22;4995473;28;20109;-57
2022/09/08 06:58:36;;;;;;;5.22;2.38;;;;;;;14.87;100.00;95711.78;4994547;28;20460;-58
2022/09/08 07:01:16;;;;;;;10.18;2.58;;;;;;;14.86;100.00;95713.59;4999522;28;20058;-57
2022/09/08 07:04:06;;;;;;;7.93;2.28;;;;;;;15.01;100.00;95718.19;5002227;28;20042;-57
2022/09/08 07:07:09;;;;;;;2.45;2.25;;;;;;;14.86;100.00;95713.59;5000280;28;20037;-57
2022/09/08 07:09:53;;;;;;;2.47;1.90;;;;;;;14.87;100.00;95709.13;5006279;28;20037;-57
2022/09/08 07:12:34;;;;;;;2.72;1.90;;;;;;;14.85;100.00;95703.97;5006676;28;20034;-57
2022/09/08 07:15:10;;;;;;;3.90;2.40;;;;;;;14.94;100.00;95702.13;5011259;28;20039;-57
2022/09/08 07:17:49;;;;;;;6.07;2.00;;;;;;;15.15;100.00;95706.06;4991515;28;20500;-59
2022/09/08 07:20:15;;;;;;;1.95;1.75;;;;;;;15.42;100.00;95701.34;5015890;28;20057;-59
2022/09/08 07:22:56;;;;;;;1.60;1.50;;;;;;;15.49;100.00;95698.81;5009998;28;20041;-59
2022/09/08 07:25:52;;;;;;;1.90;1.75;;;;;;;15.51;100.00;95699.47;5003501;28;20108;-60
2022/09/08 07:28:22;;;;;;;7.72;2.95;;;;;;;15.46;100.00;95699.97;5008522;28;20451;-59
2022/09/08 07:30:56;;;;;;;5.13;2.90;;;;;;;15.51;100.00;95699.47;5007558;28;20034;-59
2022/09/08 07:33:28;;;;;;;5.13;2.38;;;;;;;15.83;100.00;95698.47;5008829;28;20535;-59
2022/09/08 07:36:10;;;;;;;4.82;1.58;;;;;;;16.18;100.00;95692.81;5008078;28;20030;-59
2022/09/08 07:38:49;;;;;;;2.53;2.05;;;;;;;16.31;100.00;95693.06;5006872;28;20025;-59
2022/09/08 07:41:40;;;;;;;2.35;1.90;;;;;;;16.45;100.00;95701.25;5006689;28;20116;-59
2022/09/08 07:44:13;;;;;;;5.43;2.13;;;;;;;16.64;100.00;95697.28;5006212;28;20062;-59
2022/09/08 07:47:06;;;;;;;3.05;2.25;;;;;;;16.57;100.00;95691.84;5000382;28;20022;-59
2022/09/08 07:49:56;;;;;;;3.42;2.33;;;;;;;16.51;100.00;95708.53;5008198;28;20038;-59
2022/09/08 07:52:39;;;;;;;2.35;2.03;;;;;;;16.45;100.00;95699.44;5008383;28;20061;-59
2022/09/08 07:55:23;;;;;;;2.53;2.30;;;;;;;16.56;100.00;95700.00;5008653;28;20400;-59
2022/09/08 07:58:07;;;;;;;2.78;1.70;;;;;;;16.60;100.00;95696.00;5007810;28;20042;-59
2022/09/08 08:00:41;;;;;;;5.03;1.85;;;;;;;16.95;100.00;95701.63;5009556;28;20076;-59
2022/09/08 08:03:29;;;;;;;4.47;2.53;;;;;;;17.34;100.00;95699.75;5010182;28;20124;-60
2022/09/08 08:06:05;;;;;;;6.40;3.20;;;;;;;17.85;100.00;95703.44;5002975;28;20054;-59
2022/09/08 08:08:42;;;;;;;5.15;1.98;;;;;;;18.28;98.42;95711.53;5000272;28;20026;-59
2022/09/08 08:11:35;;;;;;;7.68;1.65;;;;;;;18.81;95.49;95715.66;5008556;28;20030;-59
2022/09/08 08:14:23;;;;;;;3.08;1.40;;;;;;;18.99;94.48;95714.41;5002936;28;20038;-60
2022/09/08 08:16:48;;;;;;;2.13;1.13;;;;;;;18.98;93.28;95718.91;5005827;28;20075;-59
2022/09/08 08:19:23;;;;;;;7.05;1.80;;;;;;;19.12;94.43;95714.50;5009071;28;20038;-60
2022/09/08 08:21:55;;;;;;;;;;;;;;;19.34;88.43;95717.06;5002314;28;20632;-59
2022/09/08 08:24:39;;;;;;;5.13;3.00;;;;;;;19.54;90.00;95711.00;5002638;28;19945;-60
2022/09/08 08:27:23;;;;;;;3.47;2.10;;;;;;;19.72;87.11;95719.31;4999114;28;20033;-59
2022/09/08 08:30:02;;;;;;;2.80;1.60;;;;;;;19.72;85.77;95710.50;5000070;28;20056;-59
2022/09/08 08:32:41;;;;;;;1.55;1.33;;;;;;;20.10;84.77;95710.03;4998296;28;20030;-60
2022/09/08 08:35:18;;;;;;;2.00;1.45;;;;;;;20.41;83.81;95705.97;4997599;28;20124;-60
2022/09/08 08:37:47;;;;;;;2.58;1.48;;;;;;;20.76;80.50;95707.66;5004818;28;20042;-60
2022/09/08 08:40:33;;;;;;;1.38;1.30;;;;;;;20.50;72.42;95706.63;4999910;28;20060;-59
2022/09/08 08:43:08;;;;;;;2.40;1.10;;;;;;;20.27;77.13;95707.81;5001915;28;20029;-59
2022/09/08 08:45:53;;;;;;;3.67;1.20;;;;;;;20.03;75.11;95699.34;5003617;28;20018;-58
2022/09/08 08:48:33;;;;;;;1.33;1.23;;;;;;;19.88;79.08;95691.44;5003823;28;20076;-59
2022/09/08 08:51:16;;;;;;;3.67;1.70;;;;;;;19.76;83.26;95698.38;4997253;28;20042;-59
2022/09/08 08:54:00;;;;;;;1.73;1.30;;;;;;;20.03;83.71;95694.00;5007243;28;20108;-59
2022/09/08 08:56:37;;;;;;;1.00;1.00;;;;;;;20.33;82.75;95690.13;5004293;28;20516;-59
2022/09/08 08:59:05;;;;;;;2.28;1.42;;;;;;;20.49;80.82;95693.44;5003048;28;20410;-60
2022/09/08 09:01:48;;;;;;;2.03;1.40;;;;;;;20.35;79.27;95692.59;5005332;28;20036;-59
2022/09/08 09:04:26;;;;;;;2.38;1.30;;;;;;;20.23;80.27;95701.22;5007299;28;20125;-59
2022/09/08 09:07:22;;;;;;;2.22;1.33;;;;;;;20.23;78.54;95698.56;5006036;28;20044;-60
2022/09/08 09:10:06;;;;;;;1.15;1.10;;;;;;;20.46;73.62;95689.34;5003089;28;20105;-59
2022/09/08 09:12:37;;;;;;;3.80;1.30;;;;;;;20.21;76.77;95694.44;5009404;28;20804;-60
2022/09/08 09:15:21;;;;;;;1.98;1.60;;;;;;;20.09;77.57;95692.34;5003285;28;20546;-59
2022/09/08 09:18:11;;;;;;;2.08;1.15;;;;;;;20.04;79.20;95689.47;5007978;28;20610;-59
2022/09/08 09:20:39;;;;;;;1.50;1.40;;;;;;;20.13;77.96;95685.59;5012127;28;20045;-59
2022/09/08 09:23:26;;;;;;;1.75;1.65;;;;;;;20.19;74.11;95681.25;5003301;28;20510;-59
2022/09/08 09:26:20;;;;;;;1.40;1.30;;;;;;;20.53;73.32;95679.47;5004966;28;20042;-59
2022/09/08 09:28:48;;;;;;;3.88;1.38;;;;;;;20.51;74.40;95678.84;4990963;28;20825;-59
2022/09/08 09:31:49;;;;;;;2.33;1.45;;;;;;;20.54;72.51;95678.44;5008908;28;20103;-59
2022/09/08 09:35:22;;;;;;;2.78;1.27;;;;;;;20.28;68.50;95674.72;4917549;28;20048;-59
2022/09/08 09:37:57;;;;;;;1.30;1.20;;;;;;;20.30;73.11;95667.31;4914413;29;20086;-59
2022/09/08 09:40:38;;;;;;;1.48;1.38;;;;;;;20.50;73.31;95671.84;4994092;28;20078;-59
2022/09/08 09:43:41;;;;;;;2.28;1.23;;;;;;;20.48;76.13;95668.56;5004733;28;20037;-59
2022/09/08 09:46:57;;;;;;;2.38;1.42;;;;;;;20.35;70.20;95673.88;5006059;28;20034;-59
2022/09/08 09:50:01;;;;;;;1.15;1.10;;;;;;;20.88;70.00;95671.22;4961237;28;20422;-59
2022/09/08 09:52:58;;;;;;;2.28;1.20;;;;;;;20.95;69.55;95663.19;5001813;28;20030;-59
2022/09/08 09:55:48;;;;;;;1.65;1.30;;;;;;;20.65;71.45;95665.47;5001325;28;20025;-59
2022/09/08 09:58:26;;;;;;;2.83;1.20;;;;;;;20.56;71.94;95662.19;5005573;28;20040;-59
2022/09/08 10:00:57;;;;;;;2.90;1.45;;;;;;;20.50;69.16;95660.31;5005957;28;20033;-59
2022/09/08 10:04:13;;;;;;;2.80;1.10;;;;;;;20.53;70.35;95658.06;5004695;28;20145;-60
2022/09/08 10:07:07;;;;;;;1.33;1.27;;;;;;;20.59;71.22;95657.25;4965699;28;20042;-59
2022/09/08 10:10:03;;;;;;;1.90;1.35;;;;;;;20.78;72.89;95654.75;5002243;28;20504;-59
2022/09/08 10:13:08;;;;;;;1.20;1.15;;;;;;;21.43;69.18;95654.03;5006362;28;20425;-60
2022/09/08 10:15:54;;;;;;;2.28;1.23;;;;;;;21.38;69.49;95650.34;4953287;28;20037;-59
2022/09/08 10:18:53;;;;;;;1.40;1.20;;;;;;;21.55;67.92;95642.66;5002896;28;20026;-60
2022/09/08 10:21:19;;;;;;;1.42;1.17;;;;;;;21.90;67.38;95639.63;5003881;28;20038;-60
2022/09/08 10:24:18;;;;;;;1.17;1.08;;;;;;;21.97;66.21;95640.41;5002008;28;20079;-59
2022/09/08 10:27:02;;;;;;;2.78;1.20;;;;;;;21.86;66.07;95636.56;4977403;28;20033;-59
2022/09/08 10:29:49;;;;;;;1.15;1.05;;;;;;;21.96;65.44;95630.72;4997202;28;20030;-60
2022/09/08 10:33:02;;;;;;;1.80;1.27;;;;;;;21.63;63.40;95630.88;4996092;28;20033;-60
2022/09/08 10:35:46;;;;;;;1.23;1.13;;;;;;;21.74;63.13;95620.34;4943995;28;20031;-60
2022/09/08 10:38:19;;;;;;;1.30;1.20;;;;;;;21.78;63.88;95630.66;4996047;28;20599;-60
2022/09/08 10:40:57;;;;;;;1.45;1.13;;;;;;;21.92;67.38;95626.03;5002715;28;20448;-59
2022/09/08 10:43:37;;;;;;;1.42;1.33;;;;;;;22.06;63.71;95629.44;5013255;28;20034;-59
2022/09/08 10:46:31;;;;;;;1.13;1.02;;;;;;;22.20;63.11;95622.94;5007460;28;20529;-59
2022/09/08 10:49:19;;;;;;;2.88;1.63;;;;;;;22.43;62.99;95622.38;5000077;28;20425;-60
2022/09/08 10:52:03;;;;;;;1.85;1.27;;;;;;;22.68;62.25;95628.81;5006741;28;20049;-59
2022/09/08 10:54:48;;;;;;;2.33;1.48;;;;;;;22.48;64.12;95615.56;5004061;28;20029;-59
2022/09/08 10:57:58;;;;;;;2.90;1.40;;;;;;;22.67;62.34;95619.94;5008670;28;20029;-59
2022/09/08 11:00:36;;;;;;;1.50;1.35;;;;;;;22.98;61.40;95612.81;4975935;28;20291;-60
2022/09/08 11:03:29;;;;;;;2.58;1.58;;;;;;;22.86;58.29;95614.59;5000082;28;20080;-58
2022/09/08 11:06:05;;;;;;;1.48;1.17;;;;;;;23.02;59.30;95607.81;5003686;28;20344;-59
2022/09/08 11:08:37;;;;;;;2.50;1.40;;;;;;;23.38;54.79;95610.75;5001751;28;20041;-59
2022/09/08 11:11:17;;;;;;;1.35;1.05;;;;;;;23.28;54.80;95608.59;4998604;28;20034;-60
2022/09/08 11:13:43;;;;;;;5.35;1.10;;;;;;;24.06;54.57;95606.16;5004692;28;20152;-59
2022/09/08 11:16:27;;;;;;;1.35;1.23;;;;;;;24.48;53.77;95601.81;5010483;28;20133;-59
2022/09/08 11:18:56;;;;;;;2.58;1.58;;;;;;;24.29;56.23;95597.34;5010985;28;20567;-60
2022/09/08 11:21:25;;;;;;;1.27;1.17;;;;;;;24.39;53.74;95593.25;5007020;28;20057;-59
2022/09/08 11:23:57;;;;;;;2.33;1.23;;;;;;;24.56;53.55;95601.47;5008153;28;20072;-60
2022/09/08 11:26:39;;;;;;;1.92;1.25;;;;;;;24.77;53.38;95600.09;5009703;28;20402;-60
2022/09/08 11:29:09;;;;;;;3.20;1.15;;;;;;;24.83;54.21;95596.47;5007554;28;20071;-59
2022/09/08 11:31:53;;;;;;;2.95;1.05;;;;;;;25.47;47.56;95602.97;5008350;28;20041;-60
2022/09/08 11:34:46;;;;;;;1.05;1.00;;;;;;;25.24;49.68;95606.47;5012881;28;20465;-60
2022/09/08 11:37:14;;;;;;;1.13;1.02;;;;;;;24.96;50.27;95597.28;4998276;28;20836;-59
2022/09/08 11:40:06;;;;;;;2.90;1.20;;;;;;;25.10;49.09;95601.38;5003824;28;20030;-60
2022/09/08 11:42:47;;;;;;;2.63;1.10;;;;;;;25.39;49.44;95596.03;5007541;28;20830;-60
2022/09/08 11:45:47;;;;;;;2.97;1.27;;;;;;;25.33;48.59;95594.31;5008001;28;20033;-60
2022/09/08 11:48:30;;;;;;;1.75;1.30;;;;;;;25.56;49.14;95593.44;4975002;28;20387;-60
2022/09/08 11:51:03;;;;;;;2.10;1.25;;;;;;;25.50;50.32;95598.94;5005641;28;20478;-60
2022/09/08 11:53:49;;;;;;;1.42;1.33;;;;;;;25.54;49.74;95592.06;5006854;28;20068;-60
2022/09/08 11:56:30;;;;;;;3.33;1.17;;;;;;;25.79;48.29;95596.28;5005327;28;20030;-60
2022/09/08 11:59:14;;;;;;;1.95;1.33;;;;;;;26.09;49.46;95595.19;5005141;28;20523;-60
2022/09/08 12:02:01;;;;;;;1.30;1.25;;;;;;;26.77;45.01;95597.94;5007173;28;20068;-60
2022/09/08 12:04:45;;;;;;;1.83;1.25;;;;;;;26.25;45.08;95588.22;5004881;28;20108;-60
2022/09/08 12:07:29;;;;;;;1.97;1.20;;;;;;;26.80;43.60;95594.72;4969099;28;1125084;-60
2022/09/08 12:10:33;;;;;;;1.73;1.40;;;;;;;26.68;46.12;95597.53;5004652;28;20101;-59